Time;durP1;ratioP1;P1;durP2;ratioP2;P2;SDS_P1;SDS_P2;PMS_P1;PMS_P2;Temp;Humidity;BMP_temperature;BMP_pressure;BME280_temperature;BME280_humidity;BME280_pressure;Samples;Min_cycle;Max_cycle;Signal;HPM_P1;HPM_P2
2021/07/24 00:00:21;;;;;;;13.75;9.05;;;;;;;;;;5107821;28;20028;-88
2021/07/24 00:02:46;;;;;;;17.27;8.30;;;;;;;;;;5109024;28;20035;-88
2021/07/24 00:05:11;;;;;;;14.32;8.80;;;;;;;;;;5107805;28;20023;-88
2021/07/24 00:07:37;;;;;;;14.32;8.25;;;;;;;;;;5106838;28;20040;-88
2021/07/24 00:10:03;;;;;;;10.95;7.03;;;;;;;;;;5108260;28;20020;-89
2021/07/24 00:12:28;;;;;;;16.30;8.13;;;;;;;;;;5108067;28;20028;-88
2021/07/24 00:14:54;;;;;;;12.73;7.70;;;;;;;;;;5106517;28;20031;-88
2021/07/24 00:17:19;;;;;;;14.82;8.30;;;;;;;;;;5108162;28;20031;-88
2021/07/24 00:19:45;;;;;;;14.95;8.23;;;;;;;;;;5108050;28;20027;-88
2021/07/24 00:22:10;;;;;;;13.15;8.18;;;;;;;;;;5106488;28;20020;-88
2021/07/24 00:24:35;;;;;;;15.95;8.43;;;;;;;;;;5108005;28;20047;-89
2021/07/24 00:27:01;;;;;;;12.38;7.22;;;;;;;;;;5106928;28;20019;-88
2021/07/24 00:29:27;;;;;;;14.10;8.00;;;;;;;;;;5106521;28;20080;-88
2021/07/24 00:31:52;;;;;;;13.98;8.20;;;;;;;;;;5102481;28;20436;-88
2021/07/24 00:34:18;;;;;;;13.98;8.30;;;;;;;;;;5110356;28;20026;-88
2021/07/24 00:36:44;;;;;;;15.85;8.15;;;;;;;;;;5111045;28;20483;-88
2021/07/24 00:39:09;;;;;;;13.18;8.25;;;;;;;;;;5107235;28;20020;-88
2021/07/24 00:41:52;;;;;;;16.00;8.65;;;;;;;;;;5113890;28;20051;-87
2021/07/24 00:44:20;;;;;;;13.07;8.45;;;;;;;;;;5108055;28;20016;-88
2021/07/24 00:46:47;;;;;;;13.00;7.68;;;;;;;;;;5107962;28;20020;-87
2021/07/24 00:49:13;;;;;;;14.05;8.18;;;;;;;;;;5107387;28;20077;-88
2021/07/24 00:51:45;;;;;;;12.95;8.00;;;;;;;;;;5106063;28;20035;-89
2021/07/24 00:54:11;;;;;;;13.93;8.00;;;;;;;;;;5109118;28;20034;-88
2021/07/24 00:56:39;;;;;;;13.75;8.05;;;;;;;;;;5106436;28;20028;-88
2021/07/24 00:59:05;;;;;;;15.57;7.70;;;;;;;;;;5114508;28;20028;-88
2021/07/24 01:01:30;;;;;;;14.75;7.65;;;;;;;;;;5113381;28;20054;-88
2021/07/24 01:03:56;;;;;;;11.02;8.10;;;;;;;;;;5106980;28;20024;-88
2021/07/24 01:06:22;;;;;;;14.73;8.15;;;;;;;;;;5105895;28;20020;-88
2021/07/24 01:08:48;;;;;;;12.93;8.20;;;;;;;;;;5108032;28;20023;-88
2021/07/24 01:11:14;;;;;;;11.38;7.90;;;;;;;;;;5107038;28;20043;-88
2021/07/24 01:13:41;;;;;;;12.40;8.13;;;;;;;;;;5113088;28;20101;-88
2021/07/24 01:16:08;;;;;;;13.30;8.25;;;;;;;;;;5105908;28;20479;-88
2021/07/24 01:18:34;;;;;;;15.15;7.95;;;;;;;;;;5106997;28;20403;-89
2021/07/24 01:21:04;;;;;;;16.00;8.40;;;;;;;;;;5107574;28;20024;-88
2021/07/24 01:23:30;;;;;;;15.00;7.32;;;;;;;;;;5105519;28;20024;-88
2021/07/24 01:25:56;;;;;;;12.82;7.93;;;;;;;;;;5107456;28;20031;-88
2021/07/24 01:28:33;;;;;;;15.10;7.85;;;;;;;;;;5110263;28;20020;-88
2021/07/24 01:31:01;;;;;;;14.30;7.40;;;;;;;;;;5112038;28;20044;-88
2021/07/24 01:33:27;;;;;;;12.13;7.93;;;;;;;;;;5112707;28;20024;-88
2021/07/24 01:35:52;;;;;;;15.57;8.18;;;;;;;;;;5109752;28;20032;-88
2021/07/24 01:38:21;;;;;;;13.50;7.40;;;;;;;;;;5109247;28;20024;-88
2021/07/24 01:40:46;;;;;;;13.75;8.38;;;;;;;;;;5110520;28;20031;-89
2021/07/24 01:43:12;;;;;;;12.13;7.68;;;;;;;;;;5111739;28;20028;-89
2021/07/24 01:45:39;;;;;;;12.00;8.10;;;;;;;;;;5111606;28;20036;-88
2021/07/24 01:48:14;;;;;;;11.10;7.65;;;;;;;;;;5110310;28;20027;-88
2021/07/24 01:53:27;;;;;;;14.38;7.25;;;;;;;;;;5116302;28;20086;-88
2021/07/24 01:56:06;;;;;;;12.65;7.32;;;;;;;;;;5113646;28;20016;-88
2021/07/24 01:58:36;;;;;;;14.10;7.35;;;;;;;;;;5112577;28;20028;-88
2021/07/24 02:01:04;;;;;;;14.98;7.55;;;;;;;;;;5111992;28;20024;-88
2021/07/24 02:03:37;;;;;;;13.45;7.50;;;;;;;;;;5109920;28;20372;-87
2021/07/24 02:06:03;;;;;;;11.40;7.25;;;;;;;;;;5121236;28;20024;-88
2021/07/24 02:08:30;;;;;;;13.02;8.10;;;;;;;;;;5120119;28;20480;-88
2021/07/24 02:10:58;;;;;;;13.95;7.32;;;;;;;;;;5110780;28;20502;-88
2021/07/24 02:13:24;;;;;;;11.57;7.10;;;;;;;;;;5110096;28;20024;-88
2021/07/24 02:15:49;;;;;;;13.85;7.25;;;;;;;;;;5109797;28;20020;-89
2021/07/24 02:18:19;;;;;;;12.32;6.65;;;;;;;;;;5110950;28;20024;-88
2021/07/24 02:20:47;;;;;;;10.52;6.97;;;;;;;;;;5110224;28;20103;-88
2021/07/24 02:23:16;;;;;;;14.27;8.10;;;;;;;;;;5110150;28;20024;-89
2021/07/24 02:25:42;;;;;;;11.00;7.22;;;;;;;;;;5109549;28;20024;-88
2021/07/24 02:28:09;;;;;;;12.70;7.82;;;;;;;;;;5108844;28;20031;-88
2021/07/24 02:30:34;;;;;;;11.90;7.00;;;;;;;;;;5108947;28;20023;-87
2021/07/24 02:33:00;;;;;;;15.45;7.75;;;;;;;;;;5110654;28;20510;-88
2021/07/24 02:35:26;;;;;;;12.00;7.25;;;;;;;;;;5114257;28;20032;-88
2021/07/24 02:37:52;;;;;;;13.52;7.38;;;;;;;;;;5118440;28;20019;-87
2021/07/24 02:40:21;;;;;;;16.05;8.07;;;;;;;;;;5111489;28;20101;-87
2021/07/24 02:42:47;;;;;;;13.27;8.00;;;;;;;;;;5109681;28;20020;-88
2021/07/24 02:45:12;;;;;;;12.23;6.88;;;;;;;;;;5110425;28;20083;-87
2021/07/24 02:47:38;;;;;;;13.30;7.97;;;;;;;;;;5109622;28;20102;-88
2021/07/24 02:50:04;;;;;;;13.95;7.72;;;;;;;;;;5111662;28;20023;-87
2021/07/24 02:52:29;;;;;;;13.02;8.02;;;;;;;;;;5110109;28;20079;-88
2021/07/24 02:54:55;;;;;;;13.05;8.50;;;;;;;;;;5110527;28;20050;-86
2021/07/24 02:57:20;;;;;;;13.38;7.50;;;;;;;;;;5112734;28;20028;-88
2021/07/24 02:59:45;;;;;;;15.68;7.70;;;;;;;;;;5107887;28;20045;-86
2021/07/24 03:02:14;;;;;;;13.27;7.53;;;;;;;;;;5109647;28;20028;-88
2021/07/24 03:04:39;;;;;;;14.88;7.88;;;;;;;;;;5112497;28;20092;-87
2021/07/24 03:07:04;;;;;;;12.90;8.00;;;;;;;;;;5110200;28;20062;-87
2021/07/24 03:09:30;;;;;;;15.57;7.65;;;;;;;;;;5109761;28;20073;-87
2021/07/24 03:11:55;;;;;;;13.45;8.13;;;;;;;;;;5108664;28;20046;-88
2021/07/24 03:14:21;;;;;;;10.68;6.90;;;;;;;;;;5108597;28;20471;-88
2021/07/24 03:16:46;;;;;;;14.68;7.15;;;;;;;;;;5106998;28;20024;-87
2021/07/24 03:19:11;;;;;;;13.27;8.05;;;;;;;;;;5108923;28;20076;-87
2021/07/24 03:21:37;;;;;;;13.50;7.57;;;;;;;;;;5108256;28;20028;-87
2021/07/24 03:24:02;;;;;;;12.68;8.32;;;;;;;;;;5108743;28;20028;-88
2021/07/24 03:26:27;;;;;;;13.15;7.70;;;;;;;;;;5108436;28;20098;-88
2021/07/24 03:28:54;;;;;;;12.38;7.78;;;;;;;;;;5108126;28;20020;-87
2021/07/24 03:31:20;;;;;;;15.40;7.97;;;;;;;;;;5109368;28;20028;-87
2021/07/24 03:33:45;;;;;;;16.33;7.93;;;;;;;;;;5108048;28;20118;-88
2021/07/24 03:36:11;;;;;;;13.82;8.23;;;;;;;;;;5108021;28;20040;-87
2021/07/24 03:38:36;;;;;;;13.15;7.60;;;;;;;;;;5106737;28;20035;-88
2021/07/24 03:41:04;;;;;;;12.30;7.78;;;;;;;;;;5107442;28;20089;-87
2021/07/24 03:43:29;;;;;;;12.98;7.95;;;;;;;;;;5108086;28;20431;-87
2021/07/24 03:45:55;;;;;;;14.63;8.85;;;;;;;;;;5107076;28;20020;-88
2021/07/24 03:48:21;;;;;;;13.63;8.07;;;;;;;;;;5105660;28;20040;-88
2021/07/24 03:50:46;;;;;;;14.00;7.35;;;;;;;;;;5108508;28;20027;-87
2021/07/24 03:53:12;;;;;;;11.13;7.35;;;;;;;;;;5111560;28;20028;-87
2021/07/24 03:55:37;;;;;;;15.77;8.23;;;;;;;;;;5108046;28;20028;-87
2021/07/24 03:58:03;;;;;;;16.30;7.80;;;;;;;;;;5108100;28;20020;-88
2021/07/24 04:00:35;;;;;;;12.77;7.88;;;;;;;;;;5106670;28;20031;-86
2021/07/24 04:03:02;;;;;;;15.70;8.23;;;;;;;;;;5105892;28;20122;-88
2021/07/24 04:05:27;;;;;;;11.20;7.15;;;;;;;;;;5115504;28;20024;-88
2021/07/24 04:07:53;;;;;;;13.50;7.90;;;;;;;;;;5109554;28;20183;-87
2021/07/24 04:10:18;;;;;;;14.85;8.80;;;;;;;;;;5108327;28;20024;-87
2021/07/24 04:12:44;;;;;;;16.13;8.27;;;;;;;;;;5110400;28;20032;-87
2021/07/24 04:15:11;;;;;;;13.95;7.90;;;;;;;;;;5115803;28;20097;-88
2021/07/24 04:17:37;;;;;;;16.40;7.63;;;;;;;;;;5110726;28;20024;-87
2021/07/24 04:20:03;;;;;;;13.02;7.72;;;;;;;;;;5107239;28;20023;-88
2021/07/24 04:22:28;;;;;;;16.38;7.85;;;;;;;;;;5108093;28;20023;-87
2021/07/24 04:24:54;;;;;;;14.70;8.70;;;;;;;;;;5107658;28;20028;-88
2021/07/24 04:27:19;;;;;;;14.23;7.90;;;;;;;;;;5107963;28;20079;-87
2021/07/24 04:29:44;;;;;;;14.35;8.18;;;;;;;;;;5112003;28;20012;-87
2021/07/24 04:32:10;;;;;;;22.73;9.27;;;;;;;;;;5119173;28;20032;-88
2021/07/24 04:34:35;;;;;;;13.85;7.75;;;;;;;;;;5115769;28;20059;-88
2021/07/24 04:37:00;;;;;;;13.55;7.25;;;;;;;;;;5108415;28;20032;-87
2021/07/24 04:39:26;;;;;;;14.60;7.30;;;;;;;;;;5107621;28;20024;-87
2021/07/24 04:41:52;;;;;;;12.57;7.65;;;;;;;;;;5108340;28;20031;-87
2021/07/24 04:44:17;;;;;;;16.35;8.25;;;;;;;;;;5104673;28;20024;-86
2021/07/24 04:46:43;;;;;;;14.27;7.32;;;;;;;;;;5105430;28;20028;-88
2021/07/24 04:49:08;;;;;;;13.35;7.97;;;;;;;;;;5106946;28;20105;-87
2021/07/24 04:51:35;;;;;;;15.05;8.05;;;;;;;;;;5107139;28;20039;-88
2021/07/24 04:54:02;;;;;;;14.07;8.45;;;;;;;;;;5107308;28;20028;-87
2021/07/24 04:56:28;;;;;;;16.92;8.65;;;;;;;;;;5107452;28;20044;-87
2021/07/24 04:58:55;;;;;;;13.27;8.02;;;;;;;;;;5107292;28;20020;-88
2021/07/24 05:01:21;;;;;;;13.43;7.82;;;;;;;;;;5108114;28;20023;-87
2021/07/24 05:03:47;;;;;;;13.55;7.70;;;;;;;;;;5110767;28;20036;-88
2021/07/24 05:06:14;;;;;;;14.77;8.02;;;;;;;;;;5109145;28;20651;-87
2021/07/24 05:08:40;;;;;;;11.90;8.00;;;;;;;;;;5106244;28;20023;-87
2021/07/24 05:11:05;;;;;;;17.60;8.30;;;;;;;;;;5108420;28;20044;-87
2021/07/24 05:13:31;;;;;;;13.68;8.27;;;;;;;;;;5108534;28;20398;-87
2021/07/24 05:15:57;;;;;;;13.18;8.10;;;;;;;;;;5108378;28;20016;-87
2021/07/24 05:18:23;;;;;;;14.52;8.15;;;;;;;;;;5107644;28;20024;-88
2021/07/24 05:20:48;;;;;;;13.82;7.95;;;;;;;;;;5107010;28;20386;-88
2021/07/24 05:23:14;;;;;;;13.93;7.95;;;;;;;;;;5106042;28;20047;-88
2021/07/24 05:25:41;;;;;;;13.57;8.07;;;;;;;;;;5104864;28;20072;-88
2021/07/24 05:28:07;;;;;;;13.88;8.27;;;;;;;;;;5108196;28;20016;-88
2021/07/24 05:30:33;;;;;;;14.10;7.88;;;;;;;;;;5109744;28;20026;-88
2021/07/24 05:32:58;;;;;;;13.98;8.27;;;;;;;;;;5107349;28;20091;-87
2021/07/24 05:35:23;;;;;;;12.73;7.35;;;;;;;;;;5108058;28;20024;-88
2021/07/24 05:37:49;;;;;;;15.32;8.43;;;;;;;;;;5108090;28;20080;-87
2021/07/24 05:40:15;;;;;;;11.68;7.70;;;;;;;;;;5108658;28;20031;-88
2021/07/24 05:42:40;;;;;;;16.55;7.35;;;;;;;;;;5111417;28;20029;-88
2021/07/24 05:45:06;;;;;;;13.27;7.95;;;;;;;;;;5102655;28;20471;-87
2021/07/24 05:47:32;;;;;;;17.02;7.60;;;;;;;;;;5094291;28;20471;-87
2021/07/24 05:49:58;;;;;;;17.33;7.93;;;;;;;;;;5100302;28;20020;-87
2021/07/24 05:52:25;;;;;;;10.65;7.50;;;;;;;;;;5114109;28;20020;-87
2021/07/24 05:54:50;;;;;;;14.05;7.32;;;;;;;;;;5099423;28;20034;-87
2021/07/24 05:57:15;;;;;;;14.10;7.30;;;;;;;;;;5093603;28;20099;-87
2021/07/24 05:59:41;;;;;;;13.07;7.30;;;;;;;;;;5094416;28;20024;-87
2021/07/24 06:02:06;;;;;;;12.77;7.45;;;;;;;;;;5094360;28;20032;-87
2021/07/24 06:04:32;;;;;;;11.30;7.32;;;;;;;;;;5093549;28;20035;-87
2021/07/24 06:06:58;;;;;;;14.82;7.50;;;;;;;;;;5099951;28;20032;-87
2021/07/24 06:09:23;;;;;;;10.27;6.93;;;;;;;;;;5094400;28;20085;-87
2021/07/24 06:11:49;;;;;;;13.40;7.68;;;;;;;;;;5093354;28;20020;-87
2021/07/24 06:14:14;;;;;;;12.02;7.22;;;;;;;;;;5097936;28;20028;-87
2021/07/24 06:16:39;;;;;;;12.52;7.22;;;;;;;;;;5102008;28;20012;-87
2021/07/24 06:19:05;;;;;;;13.55;7.22;;;;;;;;;;5110005;28;20480;-87
2021/07/24 06:21:30;;;;;;;11.68;6.57;;;;;;;;;;5100210;28;20376;-87
2021/07/24 06:23:56;;;;;;;12.27;7.43;;;;;;;;;;5099949;28;20578;-87
2021/07/24 06:26:21;;;;;;;10.85;6.63;;;;;;;;;;5099569;28;20024;-87
2021/07/24 06:28:46;;;;;;;12.93;6.97;;;;;;;;;;5098283;28;20020;-87
2021/07/24 06:31:12;;;;;;;10.85;6.63;;;;;;;;;;5097038;28;20032;-87
2021/07/24 06:33:37;;;;;;;11.25;6.28;;;;;;;;;;5099395;28;20028;-87
2021/07/24 06:36:03;;;;;;;11.90;6.03;;;;;;;;;;5098312;28;20036;-87
2021/07/24 06:38:29;;;;;;;9.05;6.38;;;;;;;;;;5096783;28;20026;-87
2021/07/24 06:40:55;;;;;;;12.35;6.30;;;;;;;;;;5097064;28;20035;-87
2021/07/24 06:43:20;;;;;;;12.20;6.47;;;;;;;;;;5097373;28;20032;-87
2021/07/24 06:45:45;;;;;;;11.15;6.22;;;;;;;;;;5096835;28;20073;-87
2021/07/24 06:48:11;;;;;;;10.20;5.88;;;;;;;;;;5097189;28;20016;-87
2021/07/24 06:50:36;;;;;;;9.20;5.70;;;;;;;;;;5096783;28;20027;-86
2021/07/24 06:53:01;;;;;;;11.50;5.95;;;;;;;;;;5097139;28;20094;-87
2021/07/24 06:55:27;;;;;;;8.85;5.85;;;;;;;;;;5112380;28;20030;-87
2021/07/24 06:57:53;;;;;;;11.73;6.00;;;;;;;;;;5118981;28;20047;-86
2021/07/24 07:00:19;;;;;;;10.18;6.20;;;;;;;;;;5109084;28;20107;-87
2021/07/24 07:02:44;;;;;;;9.57;6.35;;;;;;;;;;5099501;28;20546;-87
2021/07/24 07:05:10;;;;;;;9.25;6.40;;;;;;;;;;5097565;28;20115;-87
2021/07/24 07:07:36;;;;;;;10.60;5.68;;;;;;;;;;5105078;28;20054;-87
2021/07/24 07:10:03;;;;;;;11.52;6.38;;;;;;;;;;5107367;28;20468;-87
2021/07/24 07:12:29;;;;;;;10.18;5.93;;;;;;;;;;5097385;28;20391;-87
2021/07/24 07:14:54;;;;;;;8.15;5.68;;;;;;;;;;5097542;28;20027;-88
2021/07/24 07:17:21;;;;;;;14.45;6.13;;;;;;;;;;5095826;28;20114;-87
2021/07/24 07:19:46;;;;;;;9.80;5.90;;;;;;;;;;5099164;28;20024;-87
2021/07/24 07:22:11;;;;;;;15.73;6.15;;;;;;;;;;5097486;28;20449;-87
2021/07/24 07:24:37;;;;;;;9.93;5.85;;;;;;;;;;5099947;28;20039;-87
2021/07/24 07:27:03;;;;;;;10.43;5.75;;;;;;;;;;5100372;28;20020;-87
2021/07/24 07:29:28;;;;;;;9.40;6.07;;;;;;;;;;5116089;28;20031;-87
2021/07/24 07:31:53;;;;;;;8.45;6.38;;;;;;;;;;5105197;28;20028;-87
2021/07/24 07:34:19;;;;;;;12.35;6.60;;;;;;;;;;5096743;28;20055;-87
2021/07/24 07:36:44;;;;;;;11.45;6.05;;;;;;;;;;5098695;28;20467;-87
2021/07/24 07:39:09;;;;;;;8.30;5.55;;;;;;;;;;5100288;28;20070;-87
2021/07/24 07:41:35;;;;;;;8.32;6.05;;;;;;;;;;5097213;28;20111;-88
2021/07/24 07:44:00;;;;;;;9.77;5.70;;;;;;;;;;5094552;28;20122;-87
2021/07/24 07:46:25;;;;;;;10.40;6.47;;;;;;;;;;5094698;28;20016;-87
2021/07/24 07:48:51;;;;;;;9.07;6.40;;;;;;;;;;5094521;28;20082;-87
2021/07/24 07:51:16;;;;;;;10.77;6.07;;;;;;;;;;5095711;28;20032;-87
2021/07/24 07:53:41;;;;;;;12.48;6.15;;;;;;;;;;5096119;28;20016;-87
2021/07/24 07:56:09;;;;;;;10.35;5.90;;;;;;;;;;5096771;28;20020;-87
2021/07/24 07:58:36;;;;;;;11.73;6.90;;;;;;;;;;5095100;28;20024;-87
2021/07/24 08:01:08;;;;;;;11.18;6.40;;;;;;;;;;5095762;28;20446;-88
2021/07/24 08:03:34;;;;;;;9.40;6.57;;;;;;;;;;5095188;28;20023;-87
2021/07/24 08:05:59;;;;;;;10.18;6.40;;;;;;;;;;5095231;28;20438;-87
2021/07/24 08:08:24;;;;;;;10.90;6.60;;;;;;;;;;5096475;28;20035;-87
2021/07/24 08:10:50;;;;;;;11.52;6.75;;;;;;;;;;5096975;28;20028;-87
2021/07/24 08:13:17;;;;;;;16.95;6.85;;;;;;;;;;5098060;28;20045;-87
2021/07/24 08:15:44;;;;;;;10.40;6.60;;;;;;;;;;5098439;28;20518;-87
2021/07/24 08:18:10;;;;;;;18.58;8.07;;;;;;;;;;5100384;28;20087;-87
2021/07/24 08:20:39;;;;;;;13.18;6.93;;;;;;;;;;5096249;28;20066;-87
2021/07/24 08:23:05;;;;;;;9.05;6.55;;;;;;;;;;5095407;28;20045;-87
2021/07/24 08:25:31;;;;;;;11.57;6.55;;;;;;;;;;5095428;28;20024;-88
2021/07/24 08:27:59;;;;;;;8.57;5.80;;;;;;;;;;5095334;28;20082;-89
2021/07/24 08:30:25;;;;;;;11.27;6.32;;;;;;;;;;5109420;28;20022;-88
2021/07/24 08:32:50;;;;;;;11.75;6.55;;;;;;;;;;5100135;28;20111;-89
2021/07/24 08:35:15;;;;;;;10.77;6.25;;;;;;;;;;5103244;28;20072;-89
2021/07/24 08:37:41;;;;;;;8.43;6.03;;;;;;;;;;5097138;28;20090;-89
2021/07/24 08:40:06;;;;;;;10.35;6.80;;;;;;;;;;5096913;28;20024;-89
2021/07/24 08:42:37;;;;;;;11.18;6.63;;;;;;;;;;5096346;28;20028;-88
2021/07/24 08:45:03;;;;;;;10.98;7.10;;;;;;;;;;5106370;28;20004;-88
2021/07/24 08:47:29;;;;;;;18.60;7.65;;;;;;;;;;5099786;28;20028;-88
2021/07/24 08:49:58;;;;;;;9.70;6.13;;;;;;;;;;5095911;28;20031;-88
2021/07/24 08:52:27;;;;;;;7.38;6.03;;;;;;;;;;5097648;28;20490;-88
2021/07/24 08:54:52;;;;;;;7.65;5.72;;;;;;;;;;5096303;28;20024;-88
2021/07/24 08:57:21;;;;;;;10.85;6.13;;;;;;;;;;5096248;28;20494;-88
2021/07/24 08:59:49;;;;;;;10.50;6.60;;;;;;;;;;5095838;28;20040;-89
2021/07/24 09:02:21;;;;;;;13.95;7.00;;;;;;;;;;5095324;28;20058;-88
2021/07/24 09:04:48;;;;;;;8.90;5.97;;;;;;;;;;5100853;28;20020;-88
2021/07/24 09:07:14;;;;;;;8.77;6.18;;;;;;;;;;5112977;28;20494;-88
2021/07/24 09:09:43;;;;;;;11.00;6.38;;;;;;;;;;5105295;28;20027;-89
2021/07/24 09:12:10;;;;;;;8.98;6.50;;;;;;;;;;5096632;28;20031;-88
2021/07/24 09:14:35;;;;;;;8.98;7.20;;;;;;;;;;5097159;28;20032;-89
2021/07/24 09:17:02;;;;;;;9.68;7.07;;;;;;;;;;5097771;28;20043;-88
2021/07/24 09:19:30;;;;;;;10.48;7.15;;;;;;;;;;5104395;28;20054;-87
2021/07/24 09:21:56;;;;;;;9.63;6.60;;;;;;;;;;5115834;28;20019;-88
2021/07/24 09:24:24;;;;;;;14.43;6.93;;;;;;;;;;5113458;28;20028;-88
2021/07/24 09:26:49;;;;;;;15.25;6.65;;;;;;;;;;5106860;28;20020;-89
2021/07/24 09:29:17;;;;;;;9.50;6.10;;;;;;;;;;5096043;28;20026;-88
2021/07/24 09:31:44;;;;;;;10.23;7.13;;;;;;;;;;5094594;28;20027;-88
2021/07/24 09:34:11;;;;;;;10.15;7.03;;;;;;;;;;5095299;28;20020;-88
2021/07/24 09:36:37;;;;;;;16.20;7.07;;;;;;;;;;5095735;28;20035;-88
2021/07/24 09:39:17;;;;;;;10.65;6.28;;;;;;;;;;5096908;28;20027;-88
2021/07/24 09:41:44;;;;;;;12.93;5.75;;;;;;;;;;5100921;28;20032;-89
2021/07/24 09:44:10;;;;;;;10.32;6.50;;;;;;;;;;5096321;28;20061;-88
2021/07/24 09:46:36;;;;;;;9.18;6.63;;;;;;;;;;5097008;28;20491;-88
2021/07/24 09:49:13;;;;;;;9.38;6.55;;;;;;;;;;5099770;28;20077;-88
2021/07/24 09:51:41;;;;;;;9.93;6.32;;;;;;;;;;5099773;28;20024;-88
2021/07/24 09:54:21;;;;;;;12.60;6.35;;;;;;;;;;5099641;28;20028;-88
2021/07/24 09:56:47;;;;;;;10.55;6.50;;;;;;;;;;5098947;28;20391;-89
2021/07/24 09:59:18;;;;;;;11.90;6.40;;;;;;;;;;5097559;28;20024;-89
2021/07/24 10:01:51;;;;;;;10.65;7.28;;;;;;;;;;5102658;28;20024;-90
2021/07/24 10:04:25;;;;;;;13.95;6.88;;;;;;;;;;5099480;28;20027;-89
2021/07/24 10:06:55;;;;;;;10.95;7.93;;;;;;;;;;5099185;28;20031;-88
2021/07/24 10:09:29;;;;;;;8.68;6.75;;;;;;;;;;5098017;28;20559;-88
2021/07/24 10:11:58;;;;;;;18.98;7.45;;;;;;;;;;5098233;28;20031;-88
2021/07/24 10:14:24;;;;;;;11.80;6.55;;;;;;;;;;5098213;28;20020;-89
2021/07/24 10:16:51;;;;;;;8.85;6.38;;;;;;;;;;5098152;28;20024;-88
2021/07/24 10:19:23;;;;;;;9.63;6.88;;;;;;;;;;5098257;28;20031;-89
2021/07/24 10:21:49;;;;;;;13.30;7.45;;;;;;;;;;5097610;28;20024;-88
2021/07/24 10:24:15;;;;;;;15.98;7.20;;;;;;;;;;5107882;28;20075;-88
2021/07/24 10:27:07;;;;;;;12.23;6.93;;;;;;;;;;5099381;28;20020;-88
2021/07/24 10:29:35;;;;;;;11.45;7.32;;;;;;;;;;5098196;28;20024;-88
2021/07/24 10:32:07;;;;;;;8.05;6.22;;;;;;;;;;5097496;28;20506;-88
2021/07/24 10:34:36;;;;;;;13.85;6.82;;;;;;;;;;5098469;28;20020;-89
2021/07/24 10:37:21;;;;;;;9.95;6.45;;;;;;;;;;5097917;28;20083;-89
2021/07/24 10:39:46;;;;;;;12.30;7.75;;;;;;;;;;5099068;28;20111;-88
2021/07/24 10:42:13;;;;;;;13.05;6.88;;;;;;;;;;5112343;28;20015;-88
2021/07/24 10:44:40;;;;;;;27.60;8.48;;;;;;;;;;5115600;28;20078;-88
2021/07/24 10:47:16;;;;;;;10.73;7.18;;;;;;;;;;5105717;28;20073;-89
2021/07/24 10:49:44;;;;;;;14.95;7.55;;;;;;;;;;5100408;28;20020;-88
2021/07/24 10:52:10;;;;;;;10.45;7.22;;;;;;;;;;5100229;28;20146;-88
2021/07/24 10:54:51;;;;;;;11.93;7.25;;;;;;;;;;5099173;28;20030;-88
2021/07/24 10:57:51;;;;;;;10.10;7.18;;;;;;;;;;5098351;28;20498;-88
2021/07/24 11:00:16;;;;;;;9.98;6.60;;;;;;;;;;5097501;28;20450;-87
2021/07/24 11:02:46;;;;;;;10.43;7.47;;;;;;;;;;5096631;28;20024;-88
2021/07/24 11:05:37;;;;;;;15.18;7.43;;;;;;;;;;5096894;28;20028;-88
2021/07/24 11:08:02;;;;;;;10.18;6.85;;;;;;;;;;5086997;28;20024;-88
2021/07/24 11:10:28;;;;;;;12.82;7.18;;;;;;;;;;5103895;28;20537;-88
2021/07/24 11:12:53;;;;;;;12.40;7.45;;;;;;;;;;5102934;28;20386;-89
2021/07/24 11:15:20;;;;;;;17.50;7.47;;;;;;;;;;5098501;28;20019;-88
2021/07/24 11:18:25;;;;;;;11.55;7.55;;;;;;;;;;5103818;28;20043;-89
2021/07/24 11:20:51;;;;;;;12.77;7.50;;;;;;;;;;5114599;28;20012;-87
2021/07/24 11:23:17;;;;;;;16.98;6.80;;;;;;;;;;5108414;28;20472;-89
2021/07/24 11:25:46;;;;;;;12.20;8.23;;;;;;;;;;5107658;28;20050;-89
2021/07/24 11:28:17;;;;;;;11.57;6.90;;;;;;;;;;5108638;28;20046;-88
2021/07/24 11:30:43;;;;;;;13.30;8.35;;;;;;;;;;5108108;28;20081;-89
2021/07/24 11:33:10;;;;;;;7.35;6.35;;;;;;;;;;5105157;28;20504;-89
2021/07/24 11:35:39;;;;;;;10.68;7.38;;;;;;;;;;5108882;28;20020;-89
2021/07/24 11:38:19;;;;;;;10.15;7.28;;;;;;;;;;5114622;28;20035;-89
2021/07/24 11:40:56;;;;;;;16.02;7.10;;;;;;;;;;5107930;28;20024;-89
2021/07/24 11:43:24;;;;;;;10.50;7.80;;;;;;;;;;5108408;28;20020;-89
2021/07/24 11:45:58;;;;;;;9.40;6.78;;;;;;;;;;5120043;28;20008;-89
2021/07/24 11:48:23;;;;;;;11.85;7.90;;;;;;;;;;5116198;28;20036;-88
2021/07/24 11:50:48;;;;;;;9.90;7.63;;;;;;;;;;5106592;28;20019;-88
2021/07/24 11:53:19;;;;;;;12.82;7.30;;;;;;;;;;5107090;28;20028;-89
2021/07/24 11:55:44;;;;;;;13.82;7.80;;;;;;;;;;5105368;28;20035;-90
2021/07/24 11:58:14;;;;;;;13.27;7.53;;;;;;;;;;5104510;28;20024;-89
2021/07/24 12:00:46;;;;;;;10.85;7.65;;;;;;;;;;5108019;28;20059;-88
2021/07/24 12:03:14;;;;;;;10.25;6.97;;;;;;;;;;5111680;28;20032;-89
2021/07/24 12:05:40;;;;;;;13.88;8.20;;;;;;;;;;5105682;28;20027;-89
2021/07/24 12:08:07;;;;;;;9.63;7.63;;;;;;;;;;5103767;28;20061;-87
2021/07/24 12:10:36;;;;;;;11.02;7.68;;;;;;;;;;5105161;28;20479;-89
2021/07/24 12:13:03;;;;;;;10.45;7.85;;;;;;;;;;5106081;28;20042;-89
2021/07/24 12:15:58;;;;;;;12.50;8.02;;;;;;;;;;5104851;28;20023;-89
2021/07/24 12:18:24;;;;;;;15.30;7.70;;;;;;;;;;5101557;28;20082;-89
2021/07/24 12:20:49;;;;;;;11.38;7.93;;;;;;;;;;5106476;28;20028;-89
2021/07/24 12:23:28;;;;;;;12.25;8.20;;;;;;;;;;5110599;28;20428;-89
2021/07/24 12:26:18;;;;;;;9.55;7.40;;;;;;;;;;5103002;28;20097;-90
2021/07/24 12:28:44;;;;;;;15.25;8.15;;;;;;;;;;5102808;28;20027;-89
2021/07/24 12:31:30;;;;;;;14.25;8.45;;;;;;;;;;5105031;28;20030;-90
2021/07/24 12:34:01;;;;;;;11.10;7.45;;;;;;;;;;5102164;28;20016;-88
2021/07/24 12:36:28;;;;;;;12.32;7.50;;;;;;;;;;5102206;28;20510;-90
2021/07/24 12:38:57;;;;;;;10.10;7.72;;;;;;;;;;5102920;28;20067;-88
2021/07/24 12:41:32;;;;;;;14.23;8.13;;;;;;;;;;5102316;28;20048;-88
2021/07/24 12:44:07;;;;;;;19.13;7.85;;;;;;;;;;5103012;28;20386;-90
2021/07/24 12:46:37;;;;;;;14.07;7.07;;;;;;;;;;5102333;28;20080;-89
2021/07/24 12:49:03;;;;;;;14.15;7.47;;;;;;;;;;5101342;28;20015;-89
2021/07/24 12:51:37;;;;;;;21.10;8.38;;;;;;;;;;5100073;28;20031;-90
2021/07/24 12:54:08;;;;;;;11.48;7.80;;;;;;;;;;5112580;28;20075;-88
2021/07/24 12:56:33;;;;;;;14.65;8.13;;;;;;;;;;5107334;28;20024;-90
2021/07/24 12:59:02;;;;;;;10.02;7.50;;;;;;;;;;5107610;28;20024;-89
2021/07/24 13:01:28;;;;;;;14.00;7.93;;;;;;;;;;5107232;28;20487;-89
2021/07/24 13:03:53;;;;;;;10.02;7.75;;;;;;;;;;5106791;28;20098;-89
2021/07/24 13:06:19;;;;;;;14.15;8.25;;;;;;;;;;5107652;28;20113;-89
2021/07/24 13:08:45;;;;;;;18.50;7.47;;;;;;;;;;5103302;28;20020;-88
2021/07/24 13:11:11;;;;;;;17.55;7.75;;;;;;;;;;5096292;28;20028;-88
2021/07/24 13:13:37;;;;;;;12.65;8.55;;;;;;;;;;5094550;28;20052;-88
2021/07/24 13:16:02;;;;;;;11.27;7.93;;;;;;;;;;5095883;28;20052;-88
2021/07/24 13:18:28;;;;;;;14.32;8.63;;;;;;;;;;5093897;28;20391;-88
2021/07/24 13:20:53;;;;;;;9.52;7.78;;;;;;;;;;5094686;28;20032;-88
2021/07/24 13:23:18;;;;;;;17.60;9.10;;;;;;;;;;5111134;28;20028;-87
2021/07/24 13:25:52;;;;;;;10.50;8.00;;;;;;;;;;5099134;28;20024;-88
2021/07/24 13:28:17;;;;;;;11.88;8.32;;;;;;;;;;5097641;28;20024;-88
2021/07/24 13:30:48;;;;;;;14.68;8.32;;;;;;;;;;5098600;28;20024;-88
2021/07/24 13:33:15;;;;;;;14.10;7.85;;;;;;;;;;5099913;28;20069;-87
2021/07/24 13:35:42;;;;;;;10.38;8.15;;;;;;;;;;5099088;28;20268;-87
2021/07/24 13:38:07;;;;;;;14.07;8.50;;;;;;;;;;5099585;28;20031;-87
2021/07/24 13:40:33;;;;;;;13.40;8.27;;;;;;;;;;5107585;28;20020;-86
2021/07/24 13:43:01;;;;;;;12.75;8.70;;;;;;;;;;5104000;28;20051;-87
2021/07/24 13:45:26;;;;;;;11.77;8.18;;;;;;;;;;5100167;28;20051;-87
2021/07/24 13:47:52;;;;;;;13.07;8.93;;;;;;;;;;5101265;28;20479;-86
2021/07/24 13:50:17;;;;;;;11.63;8.93;;;;;;;;;;5100267;28;20020;-87
2021/07/24 13:52:42;;;;;;;12.32;8.63;;;;;;;;;;5109826;28;20056;-87
2021/07/24 13:55:08;;;;;;;10.07;8.20;;;;;;;;;;5100354;28;20026;-87
2021/07/24 13:57:38;;;;;;;12.25;8.75;;;;;;;;;;5100400;28;20020;-87
2021/07/24 14:00:06;;;;;;;11.65;8.38;;;;;;;;;;5105507;28;20024;-87
2021/07/24 14:02:32;;;;;;;12.43;8.63;;;;;;;;;;5110824;28;20031;-87
2021/07/24 14:04:58;;;;;;;13.88;8.10;;;;;;;;;;5102640;28;20020;-87
2021/07/24 14:07:23;;;;;;;11.07;8.38;;;;;;;;;;5100313;28;20016;-87
2021/07/24 14:09:48;;;;;;;13.10;8.65;;;;;;;;;;5099313;28;20028;-87
2021/07/24 14:12:14;;;;;;;14.35;8.32;;;;;;;;;;5101310;28;20040;-87
2021/07/24 14:14:39;;;;;;;12.75;8.48;;;;;;;;;;5100303;28;20016;-87
2021/07/24 14:17:04;;;;;;;15.75;8.95;;;;;;;;;;5102393;28;20051;-87
2021/07/24 14:19:30;;;;;;;15.48;8.80;;;;;;;;;;5106488;28;20035;-87
2021/07/24 14:21:55;;;;;;;12.25;8.27;;;;;;;;;;5109063;28;20051;-88
2021/07/24 14:24:20;;;;;;;21.35;8.90;;;;;;;;;;5106368;28;20101;-87
2021/07/24 14:26:46;;;;;;;12.40;8.30;;;;;;;;;;5100498;28;20154;-87
2021/07/24 14:29:11;;;;;;;19.63;8.68;;;;;;;;;;5100458;28;20020;-87
2021/07/24 14:31:36;;;;;;;14.75;8.98;;;;;;;;;;5110733;22;20041;-90
2021/07/24 14:34:02;;;;;;;15.90;8.30;;;;;;;;;;5060976;28;20365;-90